sensor_id;sensor_type;location;lat;lon;timestamp;temperature;humidity
15274;DHT22;7738;49.532;11.156;2024-02-26T00:00:09;3.20;99.90
15274;DHT22;7738;49.532;11.156;2024-02-26T00:02:42;3.30;99.90
15274;DHT22;7738;49.532;11.156;2024-02-26T00:17:48;3.30;99.90
15274;DHT22;7738;49.532;11.156;2024-02-26T00:32:53;3.30;99.90
15274;DHT22;7738;49.532;11.156;2024-02-26T00:48:00;3.20;99.90
15274;DHT22;7738;49.532;11.156;2024-02-26T00:50:32;3.20;99.90
15274;DHT22;7738;49.532;11.156;2024-02-26T01:03:07;3.10;99.90
15274;DHT22;7738;49.532;11.156;2024-02-26T01:08:08;3.00;99.90
15274;DHT22;7738;49.532;11.156;2024-02-26T01:18:13;2.90;99.90
15274;DHT22;7738;49.532;11.156;2024-02-26T01:28:16;2.80;99.90
15274;DHT22;7738;49.532;11.156;2024-02-26T01:33:20;2.80;99.90
15274;DHT22;7738;49.532;11.156;2024-02-26T01:48:25;2.70;99.90
15274;DHT22;7738;49.532;11.156;2024-02-26T02:00:58;2.70;99.90
15274;DHT22;7738;49.532;11.156;2024-02-26T02:03:31;2.70;99.90
15274;DHT22;7738;49.532;11.156;2024-02-26T02:06:03;2.70;99.90
15274;DHT22;7738;49.532;11.156;2024-02-26T02:08:34;2.70;99.90
15274;DHT22;7738;49.532;11.156;2024-02-26T02:11:06;2.70;99.90
15274;DHT22;7738;49.532;11.156;2024-02-26T02:18:42;2.60;99.90
15274;DHT22;7738;49.532;11.156;2024-02-26T02:21:15;2.70;99.90
15274;DHT22;7738;49.532;11.156;2024-02-26T02:26:16;2.70;99.90
15274;DHT22;7738;49.532;11.156;2024-02-26T02:28:48;2.70;99.90
15274;DHT22;7738;49.532;11.156;2024-02-26T02:36:22;2.70;99.90
15274;DHT22;7738;49.532;11.156;2024-02-26T02:51:28;2.70;99.90
15274;DHT22;7738;49.532;11.156;2024-02-26T03:06:33;2.70;99.90
15274;DHT22;7738;49.532;11.156;2024-02-26T03:21:40;2.60;99.90
15274;DHT22;7738;49.532;11.156;2024-02-26T03:36:47;2.70;99.90
15274;DHT22;7738;49.532;11.156;2024-02-26T03:51:53;2.90;99.90
15274;DHT22;7738;49.532;11.156;2024-02-26T04:06:58;2.80;99.90
15274;DHT22;7738;49.532;11.156;2024-02-26T04:09:31;2.80;99.90
15274;DHT22;7738;49.532;11.156;2024-02-26T04:22:06;2.70;99.90
15274;DHT22;7738;49.532;11.156;2024-02-26T04:37:11;2.70;99.90
15274;DHT22;7738;49.532;11.156;2024-02-26T04:52:22;2.80;99.90
15274;DHT22;7738;49.532;11.156;2024-02-26T05:04:55;2.70;99.90
15274;DHT22;7738;49.532;11.156;2024-02-26T05:07:27;2.70;99.90
15274;DHT22;7738;49.532;11.156;2024-02-26T05:17:30;2.70;99.90
15274;DHT22;7738;49.532;11.156;2024-02-26T05:20:01;3.90;99.90
15274;DHT22;7738;49.532;11.156;2024-02-26T05:22:34;2.70;99.90
15274;DHT22;7738;49.532;11.156;2024-02-26T05:25:04;2.70;99.90
15274;DHT22;7738;49.532;11.156;2024-02-26T05:30:07;2.70;99.90
15274;DHT22;7738;49.532;11.156;2024-02-26T05:32:37;2.70;99.90
15274;DHT22;7738;49.532;11.156;2024-02-26T05:35:08;2.70;99.90
15274;DHT22;7738;49.532;11.156;2024-02-26T05:37:41;2.70;99.90
15274;DHT22;7738;49.532;11.156;2024-02-26T05:40:12;2.70;99.90
15274;DHT22;7738;49.532;11.156;2024-02-26T05:42:43;2.70;99.90
15274;DHT22;7738;49.532;11.156;2024-02-26T05:47:44;2.70;99.90
15274;DHT22;7738;49.532;11.156;2024-02-26T05:50:15;2.70;99.90
15274;DHT22;7738;49.532;11.156;2024-02-26T05:52:48;2.70;99.90
15274;DHT22;7738;49.532;11.156;2024-02-26T05:57:48;2.70;99.90
15274;DHT22;7738;49.532;11.156;2024-02-26T06:00:20;2.70;99.90
15274;DHT22;7738;49.532;11.156;2024-02-26T06:07:54;2.60;99.90
15274;DHT22;7738;49.532;11.156;2024-02-26T06:17:55;2.70;99.90
15274;DHT22;7738;49.532;11.156;2024-02-26T06:20:26;2.70;99.90
15274;DHT22;7738;49.532;11.156;2024-02-26T06:22:58;2.70;99.90
15274;DHT22;7738;49.532;11.156;2024-02-26T06:27:59;2.70;99.90
15274;DHT22;7738;49.532;11.156;2024-02-26T06:30:29;2.70;99.90
15274;DHT22;7738;49.532;11.156;2024-02-26T06:33:00;2.70;99.90
15274;DHT22;7738;49.532;11.156;2024-02-26T06:35:30;2.70;99.90
15274;DHT22;7738;49.532;11.156;2024-02-26T06:38:03;2.70;99.90
15274;DHT22;7738;49.532;11.156;2024-02-26T06:40:35;2.80;99.90
15274;DHT22;7738;49.532;11.156;2024-02-26T06:43:05;2.80;99.90
15274;DHT22;7738;49.532;11.156;2024-02-26T06:45:35;2.80;99.90
15274;DHT22;7738;49.532;11.156;2024-02-26T06:48:07;2.80;99.90
15274;DHT22;7738;49.532;11.156;2024-02-26T06:50:37;2.80;99.90
15274;DHT22;7738;49.532;11.156;2024-02-26T06:53:11;2.80;99.90
15274;DHT22;7738;49.532;11.156;2024-02-26T06:55:41;2.80;99.90
15274;DHT22;7738;49.532;11.156;2024-02-26T06:58:12;2.80;99.90
15274;DHT22;7738;49.532;11.156;2024-02-26T07:00:42;2.90;99.90
15274;DHT22;7738;49.532;11.156;2024-02-26T07:03:13;2.90;99.90
15274;DHT22;7738;49.532;11.156;2024-02-26T07:05:43;2.90;99.90
15274;DHT22;7738;49.532;11.156;2024-02-26T07:08:17;2.90;99.90
15274;DHT22;7738;49.532;11.156;2024-02-26T07:10:48;2.90;99.90
15274;DHT22;7738;49.532;11.156;2024-02-26T07:15:51;3.00;99.90
15274;DHT22;7738;49.532;11.156;2024-02-26T07:18:21;3.70;99.90
15274;DHT22;7738;49.532;11.156;2024-02-26T07:20:52;3.00;99.90
15274;DHT22;7738;49.532;11.156;2024-02-26T07:23:26;3.00;99.90
15274;DHT22;7738;49.532;11.156;2024-02-26T07:33:27;3.10;99.90
15274;DHT22;7738;49.532;11.156;2024-02-26T07:36:00;3.10;99.90
15274;DHT22;7738;49.532;11.156;2024-02-26T07:38:33;3.10;99.90
15274;DHT22;7738;49.532;11.156;2024-02-26T07:41:10;3.20;99.90
15274;DHT22;7738;49.532;11.156;2024-02-26T07:43:41;3.20;99.90
15274;DHT22;7738;49.532;11.156;2024-02-26T07:46:11;3.20;99.90
15274;DHT22;7738;49.532;11.156;2024-02-26T07:48:42;3.30;99.90
15274;DHT22;7738;49.532;11.156;2024-02-26T07:51:13;3.40;99.90
15274;DHT22;7738;49.532;11.156;2024-02-26T07:53:47;3.40;99.90
15274;DHT22;7738;49.532;11.156;2024-02-26T07:56:17;3.60;99.90
15274;DHT22;7738;49.532;11.156;2024-02-26T07:58:47;3.60;99.90
15274;DHT22;7738;49.532;11.156;2024-02-26T08:01:17;3.70;99.90
15274;DHT22;7738;49.532;11.156;2024-02-26T08:08:51;4.10;99.90
15274;DHT22;7738;49.532;11.156;2024-02-26T08:18:54;4.20;99.90
15274;DHT22;7738;49.532;11.156;2024-02-26T08:21:25;4.20;99.90
15274;DHT22;7738;49.532;11.156;2024-02-26T08:23:58;4.20;99.90
15274;DHT22;7738;49.532;11.156;2024-02-26T08:26:29;4.20;99.90
15274;DHT22;7738;49.532;11.156;2024-02-26T08:39:09;4.10;99.90
15274;DHT22;7738;49.532;11.156;2024-02-26T08:54:17;4.20;99.90
15274;DHT22;7738;49.532;11.156;2024-02-26T08:59:18;4.30;99.90
15274;DHT22;7738;49.532;11.156;2024-02-26T09:01:50;4.30;99.90
15274;DHT22;7738;49.532;11.156;2024-02-26T09:04:20;4.40;99.90
15274;DHT22;7738;49.532;11.156;2024-02-26T09:06:50;4.40;99.90
15274;DHT22;7738;49.532;11.156;2024-02-26T09:09:23;4.40;99.90
15274;DHT22;7738;49.532;11.156;2024-02-26T09:11:53;4.50;99.90
15274;DHT22;7738;49.532;11.156;2024-02-26T09:14:24;4.50;99.90
15274;DHT22;7738;49.532;11.156;2024-02-26T09:16:54;4.60;99.90
15274;DHT22;7738;49.532;11.156;2024-02-26T09:19:25;4.70;99.90
15274;DHT22;7738;49.532;11.156;2024-02-26T09:21:56;4.80;99.90
15274;DHT22;7738;49.532;11.156;2024-02-26T09:24:29;4.90;99.90
15274;DHT22;7738;49.532;11.156;2024-02-26T09:26:59;5.10;99.90
15274;DHT22;7738;49.532;11.156;2024-02-26T09:32:00;5.50;99.90
15274;DHT22;7738;49.532;11.156;2024-02-26T09:34:30;5.60;99.90
15274;DHT22;7738;49.532;11.156;2024-02-26T09:37:01;5.70;99.90
15274;DHT22;7738;49.532;11.156;2024-02-26T09:39:47;5.90;99.90
15274;DHT22;7738;49.532;11.156;2024-02-26T09:42:18;6.00;99.90
15274;DHT22;7738;49.532;11.156;2024-02-26T09:44:51;6.20;99.90
15274;DHT22;7738;49.532;11.156;2024-02-26T09:47:23;6.20;99.90
15274;DHT22;7738;49.532;11.156;2024-02-26T09:49:56;6.30;99.90
15274;DHT22;7738;49.532;11.156;2024-02-26T09:52:31;6.30;99.90
15274;DHT22;7738;49.532;11.156;2024-02-26T09:55:08;6.40;99.90
15274;DHT22;7738;49.532;11.156;2024-02-26T09:57:42;6.50;99.90
15274;DHT22;7738;49.532;11.156;2024-02-26T10:00:18;6.60;99.90
15274;DHT22;7738;49.532;11.156;2024-02-26T10:02:48;6.70;99.90
15274;DHT22;7738;49.532;11.156;2024-02-26T10:05:18;6.80;99.90
15274;DHT22;7738;49.532;11.156;2024-02-26T10:07:50;6.90;99.90
15274;DHT22;7738;49.532;11.156;2024-02-26T10:10:25;7.00;99.90
15274;DHT22;7738;49.532;11.156;2024-02-26T10:12:56;7.00;99.90
15274;DHT22;7738;49.532;11.156;2024-02-26T10:17:57;7.10;99.90
15274;DHT22;7738;49.532;11.156;2024-02-26T10:20:28;7.10;99.90
15274;DHT22;7738;49.532;11.156;2024-02-26T10:23:00;7.00;99.90
15274;DHT22;7738;49.532;11.156;2024-02-26T10:25:34;7.00;99.90
15274;DHT22;7738;49.532;11.156;2024-02-26T10:28:05;7.00;99.90
15274;DHT22;7738;49.532;11.156;2024-02-26T10:30:36;7.00;99.90
15274;DHT22;7738;49.532;11.156;2024-02-26T10:33:09;7.10;99.90
15274;DHT22;7738;49.532;11.156;2024-02-26T10:35:45;7.10;99.90
15274;DHT22;7738;49.532;11.156;2024-02-26T10:38:15;7.30;99.90
15274;DHT22;7738;49.532;11.156;2024-02-26T10:40:51;7.30;99.90
15274;DHT22;7738;49.532;11.156;2024-02-26T10:43:21;7.40;99.90
15274;DHT22;7738;49.532;11.156;2024-02-26T10:45:51;7.50;99.90
15274;DHT22;7738;49.532;11.156;2024-02-26T10:48:22;7.60;99.90
15274;DHT22;7738;49.532;11.156;2024-02-26T10:50:52;7.80;99.90
15274;DHT22;7738;49.532;11.156;2024-02-26T10:53:29;8.00;99.90
15274;DHT22;7738;49.532;11.156;2024-02-26T10:56:04;8.80;99.90
15274;DHT22;7738;49.532;11.156;2024-02-26T10:58:36;8.40;99.90
15274;DHT22;7738;49.532;11.156;2024-02-26T11:01:06;8.40;99.90
15274;DHT22;7738;49.532;11.156;2024-02-26T11:03:37;8.40;99.90
15274;DHT22;7738;49.532;11.156;2024-02-26T11:06:08;8.40;99.90
15274;DHT22;7738;49.532;11.156;2024-02-26T11:08:38;8.50;99.90
15274;DHT22;7738;49.532;11.156;2024-02-26T11:11:11;8.60;99.90
15274;DHT22;7738;49.532;11.156;2024-02-26T11:13:45;8.80;99.90
15274;DHT22;7738;49.532;11.156;2024-02-26T11:16:18;9.00;99.90
15274;DHT22;7738;49.532;11.156;2024-02-26T11:18:49;11.90;99.90
15274;DHT22;7738;49.532;11.156;2024-02-26T11:21:20;9.20;99.10
15274;DHT22;7738;49.532;11.156;2024-02-26T11:23:57;9.40;98.20
15274;DHT22;7738;49.532;11.156;2024-02-26T11:26:30;9.80;98.90
15274;DHT22;7738;49.532;11.156;2024-02-26T11:29:01;10.20;98.20
15274;DHT22;7738;49.532;11.156;2024-02-26T11:31:32;10.60;97.00
15274;DHT22;7738;49.532;11.156;2024-02-26T11:34:04;11.10;95.30
15274;DHT22;7738;49.532;11.156;2024-02-26T11:36:34;11.50;94.40
15274;DHT22;7738;49.532;11.156;2024-02-26T11:39:06;12.00;95.00
15274;DHT22;7738;49.532;11.156;2024-02-26T11:41:42;12.30;93.20
15274;DHT22;7738;49.532;11.156;2024-02-26T11:44:12;12.70;92.70
15274;DHT22;7738;49.532;11.156;2024-02-26T11:46:43;12.70;90.10
15274;DHT22;7738;49.532;11.156;2024-02-26T11:49:31;12.40;90.30
15274;DHT22;7738;49.532;11.156;2024-02-26T11:52:06;12.30;90.80
15274;DHT22;7738;49.532;11.156;2024-02-26T11:54:44;12.30;90.80
15274;DHT22;7738;49.532;11.156;2024-02-26T11:57:27;12.50;91.00
15274;DHT22;7738;49.532;11.156;2024-02-26T12:00:11;12.20;91.70
15274;DHT22;7738;49.532;11.156;2024-02-26T12:02:44;12.40;91.90
15274;DHT22;7738;49.532;11.156;2024-02-26T12:05:17;12.30;90.20
15274;DHT22;7738;49.532;11.156;2024-02-26T12:07:49;12.20;90.20
15274;DHT22;7738;49.532;11.156;2024-02-26T12:10:23;12.10;90.00
15274;DHT22;7738;49.532;11.156;2024-02-26T12:13:05;13.20;91.00
15274;DHT22;7738;49.532;11.156;2024-02-26T12:15:37;12.80;90.50
15274;DHT22;7738;49.532;11.156;2024-02-26T12:18:12;13.30;89.60
15274;DHT22;7738;49.532;11.156;2024-02-26T12:20:45;13.50;89.80
15274;DHT22;7738;49.532;11.156;2024-02-26T12:23:17;13.80;86.30
15274;DHT22;7738;49.532;11.156;2024-02-26T12:25:47;15.90;86.70
15274;DHT22;7738;49.532;11.156;2024-02-26T12:28:20;16.80;85.30
15274;DHT22;7738;49.532;11.156;2024-02-26T12:30:50;14.30;81.30
15274;DHT22;7738;49.532;11.156;2024-02-26T12:33:20;14.30;79.40
15274;DHT22;7738;49.532;11.156;2024-02-26T12:35:53;15.00;79.30
15274;DHT22;7738;49.532;11.156;2024-02-26T12:38:24;14.30;78.20
15274;DHT22;7738;49.532;11.156;2024-02-26T12:40:54;14.80;83.20
15274;DHT22;7738;49.532;11.156;2024-02-26T12:43:27;14.80;75.60
15274;DHT22;7738;49.532;11.156;2024-02-26T12:45:57;14.50;74.90
15274;DHT22;7738;49.532;11.156;2024-02-26T12:48:28;14.20;75.60
15274;DHT22;7738;49.532;11.156;2024-02-26T12:50:58;13.70;75.70
15274;DHT22;7738;49.532;11.156;2024-02-26T12:53:29;14.40;77.40
15274;DHT22;7738;49.532;11.156;2024-02-26T12:55:59;13.20;78.30
15274;DHT22;7738;49.532;11.156;2024-02-26T12:58:36;14.90;80.70
15274;DHT22;7738;49.532;11.156;2024-02-26T13:01:14;13.10;78.10
15274;DHT22;7738;49.532;11.156;2024-02-26T13:03:45;13.40;78.10
15274;DHT22;7738;49.532;11.156;2024-02-26T13:06:16;13.50;76.40
15274;DHT22;7738;49.532;11.156;2024-02-26T13:08:47;13.30;75.10
15274;DHT22;7738;49.532;11.156;2024-02-26T13:11:17;14.90;79.70
15274;DHT22;7738;49.532;11.156;2024-02-26T13:13:50;13.20;78.50
15274;DHT22;7738;49.532;11.156;2024-02-26T13:16:24;13.00;77.30
15274;DHT22;7738;49.532;11.156;2024-02-26T13:18:55;14.30;79.50
15274;DHT22;7738;49.532;11.156;2024-02-26T13:21:25;13.00;78.50
15274;DHT22;7738;49.532;11.156;2024-02-26T13:23:56;14.70;79.60
15274;DHT22;7738;49.532;11.156;2024-02-26T13:26:26;13.40;77.60
15274;DHT22;7738;49.532;11.156;2024-02-26T13:29:02;13.80;77.10
15274;DHT22;7738;49.532;11.156;2024-02-26T13:31:39;14.10;74.80
15274;DHT22;7738;49.532;11.156;2024-02-26T13:34:11;14.40;73.10
15274;DHT22;7738;49.532;11.156;2024-02-26T13:36:42;14.60;72.70
15274;DHT22;7738;49.532;11.156;2024-02-26T13:39:21;15.10;72.00
15274;DHT22;7738;49.532;11.156;2024-02-26T13:41:52;14.90;69.20
15274;DHT22;7738;49.532;11.156;2024-02-26T13:44:26;14.90;67.60
15274;DHT22;7738;49.532;11.156;2024-02-26T13:46:57;15.00;67.40
15274;DHT22;7738;49.532;11.156;2024-02-26T13:49:27;15.30;67.90
15274;DHT22;7738;49.532;11.156;2024-02-26T13:51:57;15.00;67.00
15274;DHT22;7738;49.532;11.156;2024-02-26T13:54:27;14.70;68.40
15274;DHT22;7738;49.532;11.156;2024-02-26T13:56:57;14.20;68.00
15274;DHT22;7738;49.532;11.156;2024-02-26T13:59:30;15.00;70.70
15274;DHT22;7738;49.532;11.156;2024-02-26T14:02:01;13.40;71.60
15274;DHT22;7738;49.532;11.156;2024-02-26T14:04:32;14.00;72.30
15274;DHT22;7738;49.532;11.156;2024-02-26T14:07:03;14.80;74.30
15274;DHT22;7738;49.532;11.156;2024-02-26T14:09:34;12.70;73.40
15274;DHT22;7738;49.532;11.156;2024-02-26T14:12:16;12.60;74.40
15274;DHT22;7738;49.532;11.156;2024-02-26T14:14:53;12.40;74.20
15274;DHT22;7738;49.532;11.156;2024-02-26T14:17:26;13.60;75.80
15274;DHT22;7738;49.532;11.156;2024-02-26T14:19:56;11.80;74.00
15274;DHT22;7738;49.532;11.156;2024-02-26T14:22:26;11.70;75.70
15274;DHT22;7738;49.532;11.156;2024-02-26T14:24:57;11.50;77.10
15274;DHT22;7738;49.532;11.156;2024-02-26T14:27:27;11.40;79.80
15274;DHT22;7738;49.532;11.156;2024-02-26T14:30:01;11.40;79.20
15274;DHT22;7738;49.532;11.156;2024-02-26T14:32:31;11.30;80.80
15274;DHT22;7738;49.532;11.156;2024-02-26T14:35:07;13.90;83.40
15274;DHT22;7738;49.532;11.156;2024-02-26T14:37:43;11.10;82.50
15274;DHT22;7738;49.532;11.156;2024-02-26T14:40:16;11.00;82.00
15274;DHT22;7738;49.532;11.156;2024-02-26T14:42:46;11.00;81.90
15274;DHT22;7738;49.532;11.156;2024-02-26T14:45:19;12.70;84.10
15274;DHT22;7738;49.532;11.156;2024-02-26T14:47:49;10.90;83.10
15274;DHT22;7738;49.532;11.156;2024-02-26T14:50:20;10.80;85.30
15274;DHT22;7738;49.532;11.156;2024-02-26T14:52:50;10.80;83.70
15274;DHT22;7738;49.532;11.156;2024-02-26T14:55:20;10.70;83.50
15274;DHT22;7738;49.532;11.156;2024-02-26T14:57:50;10.90;84.90
15274;DHT22;7738;49.532;11.156;2024-02-26T15:00:23;10.60;84.50
15274;DHT22;7738;49.532;11.156;2024-02-26T15:02:53;10.50;85.10
15274;DHT22;7738;49.532;11.156;2024-02-26T15:05:24;10.50;86.50
15274;DHT22;7738;49.532;11.156;2024-02-26T15:07:54;10.40;86.70
15274;DHT22;7738;49.532;11.156;2024-02-26T15:10:26;10.30;87.70
15274;DHT22;7738;49.532;11.156;2024-02-26T15:12:56;10.30;86.70
15274;DHT22;7738;49.532;11.156;2024-02-26T15:15:29;10.20;88.30
15274;DHT22;7738;49.532;11.156;2024-02-26T15:17:59;10.20;87.60
15274;DHT22;7738;49.532;11.156;2024-02-26T15:20:29;13.30;90.50
15274;DHT22;7738;49.532;11.156;2024-02-26T15:23:00;10.10;89.60
15274;DHT22;7738;49.532;11.156;2024-02-26T15:30:33;8.80;91.10
15274;DHT22;7738;49.532;11.156;2024-02-26T15:35:35;8.90;91.50
15274;DHT22;7738;49.532;11.156;2024-02-26T15:45:44;9.70;92.50
15274;DHT22;7738;49.532;11.156;2024-02-26T15:50:45;9.70;92.60
15274;DHT22;7738;49.532;11.156;2024-02-26T15:53:15;9.80;93.20
15274;DHT22;7738;49.532;11.156;2024-02-26T15:55:45;10.40;94.10
15274;DHT22;7738;49.532;11.156;2024-02-26T16:00:49;9.50;93.30
15274;DHT22;7738;49.532;11.156;2024-02-26T16:03:20;9.40;93.60
15274;DHT22;7738;49.532;11.156;2024-02-26T16:05:50;9.30;94.20
15274;DHT22;7738;49.532;11.156;2024-02-26T16:08:22;9.30;94.70
15274;DHT22;7738;49.532;11.156;2024-02-26T16:10:52;9.30;95.00
15274;DHT22;7738;49.532;11.156;2024-02-26T16:13:23;9.20;94.70
15274;DHT22;7738;49.532;11.156;2024-02-26T16:16:00;9.20;94.90
15274;DHT22;7738;49.532;11.156;2024-02-26T16:18:34;9.10;95.60
15274;DHT22;7738;49.532;11.156;2024-02-26T16:21:04;9.10;96.00
15274;DHT22;7738;49.532;11.156;2024-02-26T16:23:35;9.00;96.20
15274;DHT22;7738;49.532;11.156;2024-02-26T16:26:05;10.90;97.60
15274;DHT22;7738;49.532;11.156;2024-02-26T16:28:35;8.90;97.80
15274;DHT22;7738;49.532;11.156;2024-02-26T16:31:08;10.60;98.30
15274;DHT22;7738;49.532;11.156;2024-02-26T16:33:38;8.90;98.40
15274;DHT22;7738;49.532;11.156;2024-02-26T16:38:40;8.80;98.90
15274;DHT22;7738;49.532;11.156;2024-02-26T16:41:10;8.70;99.60
15274;DHT22;7738;49.532;11.156;2024-02-26T16:43:40;8.70;99.90
15274;DHT22;7738;49.532;11.156;2024-02-26T16:46:13;8.60;99.90
15274;DHT22;7738;49.532;11.156;2024-02-26T16:48:44;8.60;99.90
15274;DHT22;7738;49.532;11.156;2024-02-26T16:51:19;9.50;99.90
15274;DHT22;7738;49.532;11.156;2024-02-26T16:53:52;8.40;99.90
15274;DHT22;7738;49.532;11.156;2024-02-26T16:56:22;8.40;99.90
15274;DHT22;7738;49.532;11.156;2024-02-26T16:58:52;8.40;99.90
15274;DHT22;7738;49.532;11.156;2024-02-26T17:01:25;8.30;99.90
15274;DHT22;7738;49.532;11.156;2024-02-26T17:03:55;8.20;99.90
15274;DHT22;7738;49.532;11.156;2024-02-26T17:06:25;8.30;99.90
15274;DHT22;7738;49.532;11.156;2024-02-26T17:08:56;8.10;99.90
15274;DHT22;7738;49.532;11.156;2024-02-26T17:11:28;8.00;99.90
15274;DHT22;7738;49.532;11.156;2024-02-26T17:14:00;8.00;99.90
15274;DHT22;7738;49.532;11.156;2024-02-26T17:16:33;7.90;99.90
15274;DHT22;7738;49.532;11.156;2024-02-26T17:19:03;9.00;99.90
15274;DHT22;7738;49.532;11.156;2024-02-26T17:24:05;7.90;99.90
15274;DHT22;7738;49.532;11.156;2024-02-26T17:29:04;7.80;99.90
15274;DHT22;7738;49.532;11.156;2024-02-26T17:31:36;7.70;99.90
15274;DHT22;7738;49.532;11.156;2024-02-26T17:34:10;7.70;99.90
15274;DHT22;7738;49.532;11.156;2024-02-26T17:36:41;7.60;99.90
15274;DHT22;7738;49.532;11.156;2024-02-26T17:41:44;7.50;99.90
15274;DHT22;7738;49.532;11.156;2024-02-26T17:44:15;7.50;99.90
15274;DHT22;7738;49.532;11.156;2024-02-26T17:46:48;7.40;99.90
15274;DHT22;7738;49.532;11.156;2024-02-26T17:49:18;7.40;99.90
15274;DHT22;7738;49.532;11.156;2024-02-26T17:51:51;7.40;99.90
15274;DHT22;7738;49.532;11.156;2024-02-26T17:56:52;7.30;99.90
15274;DHT22;7738;49.532;11.156;2024-02-26T17:59:22;7.60;99.90
15274;DHT22;7738;49.532;11.156;2024-02-26T18:01:56;7.20;99.90
15274;DHT22;7738;49.532;11.156;2024-02-26T18:09:29;7.00;99.90
15274;DHT22;7738;49.532;11.156;2024-02-26T18:11:59;7.00;99.90
15274;DHT22;7738;49.532;11.156;2024-02-26T18:14:30;7.00;99.90
15274;DHT22;7738;49.532;11.156;2024-02-26T18:17:03;6.90;99.90
15274;DHT22;7738;49.532;11.156;2024-02-26T18:19:33;6.90;99.90
15274;DHT22;7738;49.532;11.156;2024-02-26T18:27:06;6.80;99.90
15274;DHT22;7738;49.532;11.156;2024-02-26T18:29:36;6.80;99.90
15274;DHT22;7738;49.532;11.156;2024-02-26T18:32:09;6.80;99.90
15274;DHT22;7738;49.532;11.156;2024-02-26T18:37:10;6.60;99.90
15274;DHT22;7738;49.532;11.156;2024-02-26T18:39:40;6.60;99.90
15274;DHT22;7738;49.532;11.156;2024-02-26T18:42:10;6.50;99.90
15274;DHT22;7738;49.532;11.156;2024-02-26T18:44:41;6.50;99.90
15274;DHT22;7738;49.532;11.156;2024-02-26T18:47:14;6.50;99.90
15274;DHT22;7738;49.532;11.156;2024-02-26T18:49:47;7.80;99.90
15274;DHT22;7738;49.532;11.156;2024-02-26T18:52:17;6.40;99.90
15274;DHT22;7738;49.532;11.156;2024-02-26T18:54:49;6.40;99.90
15274;DHT22;7738;49.532;11.156;2024-02-26T18:57:19;6.40;99.90
15274;DHT22;7738;49.532;11.156;2024-02-26T19:02:23;6.40;99.90
15274;DHT22;7738;49.532;11.156;2024-02-26T19:09:56;6.30;99.90
15274;DHT22;7738;49.532;11.156;2024-02-26T19:17:30;6.20;99.90
15274;DHT22;7738;49.532;11.156;2024-02-26T19:20:00;6.10;99.90
15274;DHT22;7738;49.532;11.156;2024-02-26T19:22:31;6.20;99.90
15274;DHT22;7738;49.532;11.156;2024-02-26T19:25:09;6.10;99.90
15274;DHT22;7738;49.532;11.156;2024-02-26T19:27:40;6.10;99.90
15274;DHT22;7738;49.532;11.156;2024-02-26T19:30:12;6.10;99.90
15274;DHT22;7738;49.532;11.156;2024-02-26T19:32:45;6.10;99.90
15274;DHT22;7738;49.532;11.156;2024-02-26T19:35:15;6.00;99.90
15274;DHT22;7738;49.532;11.156;2024-02-26T19:37:45;6.00;99.90
15274;DHT22;7738;49.532;11.156;2024-02-26T19:40:16;6.00;99.90
15274;DHT22;7738;49.532;11.156;2024-02-26T19:42:46;6.00;99.90
15274;DHT22;7738;49.532;11.156;2024-02-26T19:47:49;6.00;99.90
15274;DHT22;7738;49.532;11.156;2024-02-26T19:50:20;5.90;99.90
15274;DHT22;7738;49.532;11.156;2024-02-26T19:52:51;5.90;99.90
15274;DHT22;7738;49.532;11.156;2024-02-26T19:55:22;5.90;99.90
15274;DHT22;7738;49.532;11.156;2024-02-26T19:57:54;5.80;99.90
15274;DHT22;7738;49.532;11.156;2024-02-26T20:00:26;5.80;99.90
15274;DHT22;7738;49.532;11.156;2024-02-26T20:02:58;5.70;99.90
15274;DHT22;7738;49.532;11.156;2024-02-26T20:05:30;5.70;99.90
15274;DHT22;7738;49.532;11.156;2024-02-26T20:08:00;5.70;99.90
15274;DHT22;7738;49.532;11.156;2024-02-26T20:13:02;5.60;99.90
15274;DHT22;7738;49.532;11.156;2024-02-26T20:15:32;5.60;99.90
15274;DHT22;7738;49.532;11.156;2024-02-26T20:18:08;5.60;99.90
15274;DHT22;7738;49.532;11.156;2024-02-26T20:20:39;5.60;99.90
15274;DHT22;7738;49.532;11.156;2024-02-26T20:23:10;5.50;99.90
15274;DHT22;7738;49.532;11.156;2024-02-26T20:25:40;5.50;99.90
15274;DHT22;7738;49.532;11.156;2024-02-26T20:28:10;5.50;99.90
15274;DHT22;7738;49.532;11.156;2024-02-26T20:30:42;5.40;99.90
15274;DHT22;7738;49.532;11.156;2024-02-26T20:33:15;5.50;99.90
15274;DHT22;7738;49.532;11.156;2024-02-26T20:35:45;5.40;99.90
15274;DHT22;7738;49.532;11.156;2024-02-26T20:38:15;5.40;99.90
15274;DHT22;7738;49.532;11.156;2024-02-26T20:40:45;5.40;99.90
15274;DHT22;7738;49.532;11.156;2024-02-26T20:45:46;5.40;99.90
15274;DHT22;7738;49.532;11.156;2024-02-26T20:48:22;5.40;99.90
15274;DHT22;7738;49.532;11.156;2024-02-26T20:50:52;5.40;99.90
15274;DHT22;7738;49.532;11.156;2024-02-26T20:53:22;5.40;99.90
15274;DHT22;7738;49.532;11.156;2024-02-26T20:55:53;5.30;99.90
15274;DHT22;7738;49.532;11.156;2024-02-26T20:58:23;5.30;99.90
15274;DHT22;7738;49.532;11.156;2024-02-26T21:03:29;5.30;99.90
15274;DHT22;7738;49.532;11.156;2024-02-26T21:05:59;5.30;99.90
15274;DHT22;7738;49.532;11.156;2024-02-26T21:08:31;5.30;99.90
15274;DHT22;7738;49.532;11.156;2024-02-26T21:11:05;5.20;99.90
15274;DHT22;7738;49.532;11.156;2024-02-26T21:13:35;5.30;99.90
15274;DHT22;7738;49.532;11.156;2024-02-26T21:16:07;5.20;99.90
15274;DHT22;7738;49.532;11.156;2024-02-26T21:18:41;5.20;99.90
15274;DHT22;7738;49.532;11.156;2024-02-26T21:21:12;5.10;99.90
15274;DHT22;7738;49.532;11.156;2024-02-26T21:23:42;5.20;99.90
15274;DHT22;7738;49.532;11.156;2024-02-26T21:26:15;5.10;99.90
15274;DHT22;7738;49.532;11.156;2024-02-26T21:28:48;5.10;99.90
15274;DHT22;7738;49.532;11.156;2024-02-26T21:31:20;5.10;99.90
15274;DHT22;7738;49.532;11.156;2024-02-26T21:33:53;5.10;99.90
15274;DHT22;7738;49.532;11.156;2024-02-26T21:36:33;5.00;99.90
15274;DHT22;7738;49.532;11.156;2024-02-26T21:39:05;5.00;99.90
15274;DHT22;7738;49.532;11.156;2024-02-26T21:41:41;5.00;99.90
15274;DHT22;7738;49.532;11.156;2024-02-26T21:44:15;4.80;99.90
15274;DHT22;7738;49.532;11.156;2024-02-26T21:49:21;5.00;99.90
15274;DHT22;7738;49.532;11.156;2024-02-26T22:04:30;4.90;99.90
15274;DHT22;7738;49.532;11.156;2024-02-26T22:07:04;4.90;99.90
15274;DHT22;7738;49.532;11.156;2024-02-26T22:09:37;4.90;99.90
15274;DHT22;7738;49.532;11.156;2024-02-26T22:12:10;4.90;99.90
15274;DHT22;7738;49.532;11.156;2024-02-26T22:14:41;6.30;99.90
15274;DHT22;7738;49.532;11.156;2024-02-26T22:17:11;4.80;99.90
15274;DHT22;7738;49.532;11.156;2024-02-26T22:19:44;4.80;99.90
15274;DHT22;7738;49.532;11.156;2024-02-26T22:32:16;4.60;99.90
15274;DHT22;7738;49.532;11.156;2024-02-26T22:34:49;4.60;99.90
15274;DHT22;7738;49.532;11.156;2024-02-26T22:37:20;4.60;99.90
15274;DHT22;7738;49.532;11.156;2024-02-26T22:39:50;4.50;99.90
15274;DHT22;7738;49.532;11.156;2024-02-26T22:42:20;4.50;99.90
15274;DHT22;7738;49.532;11.156;2024-02-26T22:44:50;4.60;99.90
15274;DHT22;7738;49.532;11.156;2024-02-26T22:47:21;4.60;99.90
15274;DHT22;7738;49.532;11.156;2024-02-26T22:49:54;4.50;99.90